Time;durP1;ratioP1;P1;durP2;ratioP2;P2;SDS_P1;SDS_P2;PMS_P1;PMS_P2;Temp;Humidity;BMP_temperature;BMP_pressure;BME280_temperature;BME280_humidity;BME280_pressure;Samples;Min_cycle;Max_cycle;Signal;HPM_P1;HPM_P2
2023/03/25 00:02:22;;;;;;;;;1.25;0.00;;;;;;;;6304913;22;45277;-77
2023/03/25 00:04:50;;;;;;;;;0.50;0.00;;;;;;;;6305535;22;45414;-77
2023/03/25 00:07:17;;;;;;;;;0.00;0.00;;;;;;;;6304752;22;46385;-76
2023/03/25 00:09:42;;;;;;;;;1.00;0.00;;;;;;;;6305033;22;45131;-77
2023/03/25 00:12:08;;;;;;;;;2.50;1.00;;;;;;;;6305525;22;45175;-78
2023/03/25 00:14:33;;;;;;;;;0.00;0.00;;;;;;;;6305755;22;45128;-77
2023/03/25 00:17:00;;;;;;;;;0.00;0.00;;;;;;;;6304687;22;46005;-78
2023/03/25 00:19:26;;;;;;;;;0.00;0.00;;;;;;;;6304696;22;45107;-77
2023/03/25 00:21:51;;;;;;;;;0.50;0.00;;;;;;;;6305156;22;45397;-78
2023/03/25 00:24:16;;;;;;;;;0.00;0.00;;;;;;;;6305108;22;45241;-78
2023/03/25 00:26:42;;;;;;;;;1.00;0.00;;;;;;;;6277449;22;47072;-77
2023/03/25 00:29:08;;;;;;;;;5.50;0.75;;;;;;;;6304591;22;45256;-78
2023/03/25 00:31:33;;;;;;;;;0.00;0.00;;;;;;;;6305048;22;45285;-77
2023/03/25 00:33:59;;;;;;;;;1.25;0.00;;;;;;;;6305031;22;45203;-77
2023/03/25 00:36:24;;;;;;;;;1.00;0.00;;;;;;;;6305146;22;45260;-78
2023/03/25 00:38:50;;;;;;;;;5.00;0.00;;;;;;;;6277282;22;45364;-78
2023/03/25 00:41:21;;;;;;;;;2.00;0.00;;;;;;;;6305320;22;45277;-78
2023/03/25 00:43:47;;;;;;;;;2.25;0.00;;;;;;;;6304852;22;45285;-79
2023/03/25 00:46:12;;;;;;;;;1.75;0.00;;;;;;;;6304265;22;47452;-78
2023/03/25 00:48:37;;;;;;;;;1.00;0.25;;;;;;;;6304809;22;45496;-78
2023/03/25 00:51:07;;;;;;;;;1.75;0.00;;;;;;;;6305550;22;45286;-77
2023/03/25 00:53:33;;;;;;;;;1.00;0.00;;;;;;;;6304991;22;45261;-77
2023/03/25 00:55:58;;;;;;;;;2.75;0.00;;;;;;;;6304507;22;46193;-77
2023/03/25 00:58:23;;;;;;;;;0.00;0.00;;;;;;;;6304820;22;45166;-78
2023/03/25 01:00:49;;;;;;;;;0.67;0.00;;;;;;;;6277055;22;45297;-77
2023/03/25 01:03:14;;;;;;;;;0.00;0.00;;;;;;;;6304865;22;45340;-78
2023/03/25 01:05:40;;;;;;;;;1.00;0.00;;;;;;;;6304462;22;45940;-77
2023/03/25 01:08:06;;;;;;;;;3.75;0.50;;;;;;;;6304081;22;45246;-77
2023/03/25 01:10:31;;;;;;;;;0.00;0.00;;;;;;;;6304886;22;45217;-78
2023/03/25 01:12:56;;;;;;;;;3.00;0.00;;;;;;;;6304643;22;45505;-77
2023/03/25 01:15:21;;;;;;;;;1.00;0.00;;;;;;;;6277202;22;47768;-78
2023/03/25 01:17:46;;;;;;;;;0.67;0.00;;;;;;;;6276919;22;45277;-78
2023/03/25 01:20:12;;;;;;;;;1.00;1.00;;;;;;;;6305081;22;45253;-78
2023/03/25 01:22:37;;;;;;;;;0.75;0.00;;;;;;;;6304700;22;45225;-78
2023/03/25 01:25:02;;;;;;;;;1.00;0.00;;;;;;;;6304628;22;45270;-77
2023/03/25 01:27:29;;;;;;;;;1.00;0.75;;;;;;;;6304266;22;45285;-78
2023/03/25 01:29:54;;;;;;;;;0.75;0.00;;;;;;;;6304708;22;45316;-78
2023/03/25 01:32:20;;;;;;;;;2.67;0.00;;;;;;;;6304682;22;45443;-77
2023/03/25 01:34:45;;;;;;;;;1.25;0.00;;;;;;;;6304283;22;46281;-78
2023/03/25 01:37:10;;;;;;;;;0.00;0.00;;;;;;;;6305011;22;45266;-77
2023/03/25 01:39:36;;;;;;;;;1.33;0.67;;;;;;;;6304571;22;45230;-78
2023/03/25 01:42:01;;;;;;;;;1.00;0.50;;;;;;;;6304690;22;45160;-78
2023/03/25 01:44:28;;;;;;;;;1.75;0.00;;;;;;;;6304386;22;46383;-78
2023/03/25 01:46:54;;;;;;;;;0.00;0.00;;;;;;;;6304379;22;45607;-78
2023/03/25 01:49:37;;;;;;;;;0.75;0.00;;;;;;;;6304796;22;45236;-78
2023/03/25 01:52:07;;;;;;;;;3.00;0.00;;;;;;;;6305042;22;45483;-78
2023/03/25 01:54:33;;;;;;;;;4.00;0.00;;;;;;;;6304327;22;47027;-77
2023/03/25 01:56:59;;;;;;;;;4.50;1.00;;;;;;;;6304357;22;45319;-77
2023/03/25 01:59:27;;;;;;;;;0.25;0.00;;;;;;;;6304531;22;45310;-77
2023/03/25 02:01:54;;;;;;;;;1.25;0.00;;;;;;;;6304965;22;45478;-77
2023/03/25 02:04:39;;;;;;;;;2.00;0.50;;;;;;;;6304270;22;47347;-77
2023/03/25 02:07:07;;;;;;;;;1.50;0.25;;;;;;;;6304218;22;45531;-77
2023/03/25 02:09:33;;;;;;;;;1.00;0.00;;;;;;;;6304514;22;45241;-77
2023/03/25 02:11:58;;;;;;;;;1.00;1.00;;;;;;;;6303930;22;45321;-77
2023/03/25 02:14:29;;;;;;;;;0.00;0.00;;;;;;;;6304750;22;45375;-78
2023/03/25 02:17:02;;;;;;;;;1.75;0.75;;;;;;;;6304520;22;45561;-77
2023/03/25 02:19:39;;;;;;;;;0.50;0.50;;;;;;;;6305224;22;45204;-77
2023/03/25 02:22:24;;;;;;;;;0.25;0.00;;;;;;;;6305568;22;45393;-78
2023/03/25 02:25:03;;;;;;;;;2.50;1.00;;;;;;;;6305196;22;47375;-77
2023/03/25 02:27:32;;;;;;;;;0.00;0.00;;;;;;;;6304915;22;45369;-77
2023/03/25 02:30:09;;;;;;;;;0.00;0.00;;;;;;;;6305825;22;45392;-78
2023/03/25 02:32:57;;;;;;;;;8.00;0.00;;;;;;;;6306091;22;45280;-78
2023/03/25 02:35:25;;;;;;;;;1.00;1.00;;;;;;;;6305309;22;46615;-78
2023/03/25 02:38:05;;;;;;;;;3.50;1.00;;;;;;;;6305747;22;45309;-78
2023/03/25 02:40:35;;;;;;;;;1.00;1.00;;;;;;;;6305479;22;45104;-78
2023/03/25 02:43:02;;;;;;;;;0.00;0.00;;;;;;;;6306060;22;45496;-78
2023/03/25 02:45:30;;;;;;;;;1.25;0.75;;;;;;;;6305317;22;45285;-77
2023/03/25 02:48:06;;;;;;;;;4.50;1.00;;;;;;;;6305730;22;45715;-77
2023/03/25 02:50:42;;;;;;;;;0.50;0.00;;;;;;;;6305633;22;45332;-78
2023/03/25 02:53:10;;;;;;;;;3.50;0.25;;;;;;;;6277446;22;45631;-78
2023/03/25 02:55:36;;;;;;;;;0.00;0.00;;;;;;;;6305381;22;45296;-77
2023/03/25 02:58:03;;;;;;;;;1.25;0.50;;;;;;;;6305718;22;45293;-78
2023/03/25 03:00:29;;;;;;;;;5.50;0.00;;;;;;;;6305393;22;45210;-76
2023/03/25 03:02:59;;;;;;;;;0.50;0.00;;;;;;;;6306015;22;45167;-77
2023/03/25 03:05:28;;;;;;;;;5.25;0.50;;;;;;;;6305336;22;46222;-77
2023/03/25 03:08:03;;;;;;;;;2.00;0.00;;;;;;;;6277754;22;45203;-77
2023/03/25 03:10:48;;;;;;;;;0.75;0.00;;;;;;;;6304962;22;45191;-77
2023/03/25 03:13:34;;;;;;;;;2.00;0.00;;;;;;;;6304326;22;45223;-78
2023/03/25 03:16:08;;;;;;;;;0.00;0.00;;;;;;;;6277334;22;46627;-76
2023/03/25 03:18:36;;;;;;;;;4.50;0.00;;;;;;;;6305591;22;45237;-77
2023/03/25 03:21:06;;;;;;;;;1.00;1.00;;;;;;;;6305416;22;45312;-77
2023/03/25 03:23:35;;;;;;;;;3.50;1.00;;;;;;;;6305076;22;45308;-78
2023/03/25 03:26:07;;;;;;;;;0.25;0.00;;;;;;;;6305076;22;47247;-78
2023/03/25 03:28:37;;;;;;;;;1.00;0.00;;;;;;;;6277538;22;45540;-77
2023/03/25 03:31:11;;;;;;;;;0.00;0.00;;;;;;;;6305953;22;45442;-77
2023/03/25 03:33:44;;;;;;;;;1.00;0.75;;;;;;;;6305338;22;45196;-78
2023/03/25 03:36:12;;;;;;;;;0.75;0.00;;;;;;;;6305557;22;45412;-77
2023/03/25 03:38:40;;;;;;;;;1.00;0.00;;;;;;;;6304779;22;45349;-77
2023/03/25 03:41:08;;;;;;;;;1.25;0.00;;;;;;;;6305627;22;45250;-78
2023/03/25 03:43:39;;;;;;;;;0.00;0.00;;;;;;;;6305318;22;45260;-78
2023/03/25 03:46:06;;;;;;;;;0.00;0.00;;;;;;;;6305251;22;46208;-78
2023/03/25 03:48:40;;;;;;;;;0.00;0.00;;;;;;;;6305212;22;45511;-78
2023/03/25 03:51:10;;;;;;;;;2.50;0.00;;;;;;;;6305777;22;45242;-78
2023/03/25 03:53:38;;;;;;;;;0.50;0.00;;;;;;;;6304846;22;45262;-78
2023/03/25 03:56:12;;;;;;;;;1.25;0.00;;;;;;;;6277416;22;47181;-78
2023/03/25 03:58:42;;;;;;;;;0.00;0.00;;;;;;;;6305129;22;45508;-79
2023/03/25 04:01:18;;;;;;;;;0.00;0.00;;;;;;;;6305029;22;45197;-78
2023/03/25 04:03:52;;;;;;;;;1.00;0.00;;;;;;;;6305260;22;45276;-78
2023/03/25 04:06:23;;;;;;;;;0.25;0.00;;;;;;;;6304876;22;47237;-78
2023/03/25 04:09:08;;;;;;;;;1.00;0.00;;;;;;;;6276791;22;46122;-78
2023/03/25 04:11:42;;;;;;;;;0.00;0.00;;;;;;;;6304288;22;45463;-78
2023/03/25 04:14:09;;;;;;;;;1.25;0.00;;;;;;;;6305138;22;45471;-77
2023/03/25 04:16:36;;;;;;;;;2.75;0.00;;;;;;;;6304753;22;45435;-78
2023/03/25 04:19:02;;;;;;;;;0.00;0.00;;;;;;;;6305521;22;45280;-78
2023/03/25 04:21:28;;;;;;;;;0.00;0.00;;;;;;;;6304707;22;45252;-79
2023/03/25 04:23:54;;;;;;;;;0.00;0.00;;;;;;;;6305059;22;45112;-77
2023/03/25 04:26:20;;;;;;;;;0.00;0.00;;;;;;;;6304821;22;45324;-78
2023/03/25 04:28:45;;;;;;;;;3.00;0.00;;;;;;;;6304760;22;45406;-78
2023/03/25 04:31:14;;;;;;;;;1.00;0.00;;;;;;;;6305438;22;45162;-77
2023/03/25 04:33:39;;;;;;;;;1.50;0.00;;;;;;;;6304986;22;45283;-78
2023/03/25 04:36:05;;;;;;;;;0.75;0.00;;;;;;;;6304295;22;46154;-78
2023/03/25 04:38:30;;;;;;;;;0.00;0.00;;;;;;;;6304870;22;45345;-78
2023/03/25 04:40:57;;;;;;;;;0.00;0.00;;;;;;;;6276940;22;45257;-78
2023/03/25 04:43:22;;;;;;;;;1.00;0.00;;;;;;;;6277216;22;45439;-78
2023/03/25 04:45:52;;;;;;;;;0.00;0.00;;;;;;;;6276995;22;48288;-78
2023/03/25 04:48:31;;;;;;;;;0.00;0.00;;;;;;;;6304944;22;45316;-78
2023/03/25 04:50:57;;;;;;;;;1.00;0.00;;;;;;;;6304664;22;45348;-77
2023/03/25 04:53:23;;;;;;;;;1.00;0.00;;;;;;;;6304836;22;45198;-77
2023/03/25 04:55:49;;;;;;;;;0.00;0.00;;;;;;;;6305091;22;45179;-77
2023/03/25 04:58:17;;;;;;;;;0.00;0.00;;;;;;;;6304809;22;45274;-77
2023/03/25 05:00:43;;;;;;;;;0.00;0.00;;;;;;;;6304763;22;45347;-77
2023/03/25 05:03:10;;;;;;;;;1.25;0.00;;;;;;;;6305325;22;45408;-77
2023/03/25 05:05:35;;;;;;;;;0.00;0.00;;;;;;;;6304155;22;46890;-77
2023/03/25 05:08:02;;;;;;;;;3.00;0.00;;;;;;;;6304689;22;45333;-77
2023/03/25 05:10:28;;;;;;;;;6.00;0.00;;;;;;;;6305029;22;45252;-77
2023/03/25 05:13:04;;;;;;;;;2.25;0.75;;;;;;;;6304909;22;45174;-78
2023/03/25 05:15:31;;;;;;;;;0.00;0.00;;;;;;;;6304519;22;47162;-77
2023/03/25 05:17:56;;;;;;;;;0.00;0.00;;;;;;;;6304755;22;45625;-77
2023/03/25 05:20:21;;;;;;;;;0.00;0.00;;;;;;;;6304853;22;45600;-78
2023/03/25 05:22:47;;;;;;;;;0.00;0.00;;;;;;;;6277309;22;45527;-78
2023/03/25 05:25:12;;;;;;;;;2.33;0.00;;;;;;;;6276686;22;47349;-78
2023/03/25 05:27:37;;;;;;;;;1.00;0.00;;;;;;;;6305144;22;45297;-78
2023/03/25 05:30:03;;;;;;;;;1.00;0.00;;;;;;;;6305306;22;45274;-77
2023/03/25 05:32:32;;;;;;;;;2.00;0.00;;;;;;;;6304501;22;45472;-78
2023/03/25 05:34:57;;;;;;;;;1.00;0.00;;;;;;;;6276461;22;46978;-77
2023/03/25 05:37:22;;;;;;;;;0.00;0.00;;;;;;;;6304857;22;45278;-77
2023/03/25 05:39:47;;;;;;;;;0.00;0.00;;;;;;;;6305183;22;45259;-78
2023/03/25 05:42:13;;;;;;;;;2.00;0.00;;;;;;;;6305242;22;45361;-78
2023/03/25 05:44:45;;;;;;;;;0.25;0.00;;;;;;;;6304356;22;47075;-79
2023/03/25 05:47:11;;;;;;;;;1.00;0.00;;;;;;;;6304322;22;45605;-78
2023/03/25 05:49:36;;;;;;;;;0.75;0.00;;;;;;;;6304271;22;45656;-77
2023/03/25 05:52:01;;;;;;;;;2.00;0.00;;;;;;;;6304536;22;45217;-78
2023/03/25 05:54:27;;;;;;;;;1.33;0.00;;;;;;;;6304198;22;46482;-78
2023/03/25 05:56:52;;;;;;;;;1.00;0.00;;;;;;;;6304760;22;45230;-78
2023/03/25 05:59:19;;;;;;;;;0.00;0.00;;;;;;;;6304946;22;45520;-78
2023/03/25 06:01:44;;;;;;;;;5.00;0.00;;;;;;;;6304414;22;45527;-78
2023/03/25 06:04:11;;;;;;;;;0.00;0.00;;;;;;;;6303687;22;46128;-78
2023/03/25 06:06:37;;;;;;;;;0.00;0.00;;;;;;;;6304357;22;45996;-78
2023/03/25 06:09:03;;;;;;;;;0.00;0.00;;;;;;;;6276935;22;45349;-78
2023/03/25 06:11:28;;;;;;;;;0.00;0.00;;;;;;;;6304791;22;45345;-78
2023/03/25 06:13:53;;;;;;;;;0.00;0.00;;;;;;;;6304178;22;45273;-78
2023/03/25 06:16:20;;;;;;;;;0.67;0.00;;;;;;;;6304415;22;45280;-78
2023/03/25 06:18:49;;;;;;;;;0.00;0.00;;;;;;;;6304295;22;45403;-78
2023/03/25 06:21:16;;;;;;;;;0.00;0.00;;;;;;;;6304680;22;45144;-77
2023/03/25 06:23:41;;;;;;;;;1.75;0.00;;;;;;;;6304550;22;45292;-78
2023/03/25 06:26:06;;;;;;;;;3.00;0.00;;;;;;;;6304602;22;45320;-79
2023/03/25 06:28:32;;;;;;;;;0.00;0.00;;;;;;;;6304671;22;45197;-77
2023/03/25 06:30:57;;;;;;;;;0.00;0.00;;;;;;;;6304197;22;45480;-78
2023/03/25 06:33:22;;;;;;;;;0.00;0.00;;;;;;;;6303140;22;46734;-78
2023/03/25 06:35:52;;;;;;;;;0.00;0.00;;;;;;;;6304182;22;45307;-78
2023/03/25 06:38:18;;;;;;;;;3.00;0.00;;;;;;;;6304238;22;45276;-78
2023/03/25 06:40:43;;;;;;;;;1.50;0.00;;;;;;;;6304460;22;45209;-78
2023/03/25 06:43:08;;;;;;;;;0.75;0.00;;;;;;;;6303769;22;45323;-78
2023/03/25 06:45:34;;;;;;;;;0.00;0.00;;;;;;;;6303906;22;45540;-78
2023/03/25 06:47:59;;;;;;;;;2.00;0.00;;;;;;;;6303968;22;45419;-78
2023/03/25 06:50:25;;;;;;;;;0.75;0.75;;;;;;;;6304513;22;45514;-78
2023/03/25 06:52:50;;;;;;;;;1.75;0.75;;;;;;;;6303623;22;46386;-78
2023/03/25 06:55:15;;;;;;;;;1.00;1.00;;;;;;;;6304116;22;45354;-78
2023/03/25 06:57:41;;;;;;;;;1.67;0.00;;;;;;;;6303864;22;45500;-78
2023/03/25 07:00:06;;;;;;;;;0.00;0.00;;;;;;;;6304069;22;45448;-78
2023/03/25 07:02:32;;;;;;;;;1.00;0.25;;;;;;;;6303264;22;45860;-78
2023/03/25 07:04:57;;;;;;;;;1.33;0.00;;;;;;;;6276928;22;45353;-78
2023/03/25 07:07:22;;;;;;;;;0.00;0.00;;;;;;;;6305284;22;45327;-78
2023/03/25 07:09:51;;;;;;;;;0.00;0.00;;;;;;;;6305668;22;45555;-78
2023/03/25 07:12:16;;;;;;;;;0.75;0.00;;;;;;;;6304983;22;46563;-78
2023/03/25 07:14:43;;;;;;;;;2.00;0.00;;;;;;;;6305347;22;45272;-78
2023/03/25 07:17:08;;;;;;;;;0.25;0.00;;;;;;;;6304749;22;45258;-77
2023/03/25 07:19:33;;;;;;;;;2.00;0.00;;;;;;;;6305091;22;45250;-76
2023/03/25 07:21:58;;;;;;;;;0.00;0.00;;;;;;;;6277507;22;47170;-77
2023/03/25 07:24:24;;;;;;;;;0.00;0.00;;;;;;;;6305325;22;45258;-79
2023/03/25 07:26:49;;;;;;;;;3.50;0.00;;;;;;;;6305715;22;45604;-79
2023/03/25 07:29:14;;;;;;;;;7.00;1.00;;;;;;;;6305299;22;45237;-79
2023/03/25 07:31:40;;;;;;;;;0.00;0.00;;;;;;;;6304963;22;45501;-79
2023/03/25 07:34:07;;;;;;;;;0.00;0.00;;;;;;;;6305629;22;45238;-79
2023/03/25 07:36:32;;;;;;;;;2.75;0.00;;;;;;;;6305019;22;45407;-79
2023/03/25 07:38:57;;;;;;;;;2.33;0.00;;;;;;;;6305652;22;45304;-79
2023/03/25 07:41:22;;;;;;;;;0.00;0.00;;;;;;;;6304962;22;47358;-78
2023/03/25 07:43:48;;;;;;;;;0.00;0.00;;;;;;;;6305124;22;45263;-78
2023/03/25 07:46:13;;;;;;;;;1.00;0.00;;;;;;;;6304704;22;45258;-77
2023/03/25 07:48:38;;;;;;;;;0.00;0.00;;;;;;;;6305569;22;45349;-77
2023/03/25 07:51:03;;;;;;;;;0.00;0.00;;;;;;;;6277172;22;48224;-76
2023/03/25 07:53:29;;;;;;;;;1.00;0.00;;;;;;;;6304909;22;45243;-79
2023/03/25 07:55:54;;;;;;;;;1.00;0.00;;;;;;;;6305518;22;45359;-79
2023/03/25 07:58:19;;;;;;;;;5.00;1.00;;;;;;;;6304990;22;45395;-79
2023/03/25 08:00:45;;;;;;;;;1.33;0.00;;;;;;;;6304276;22;46272;-79
2023/03/25 08:03:11;;;;;;;;;0.50;0.00;;;;;;;;6305179;22;45286;-76
2023/03/25 08:05:36;;;;;;;;;2.75;0.00;;;;;;;;6305006;22;45227;-79
2023/03/25 08:08:04;;;;;;;;;2.25;0.00;;;;;;;;6305091;22;45297;-78
2023/03/25 08:10:29;;;;;;;;;2.00;0.00;;;;;;;;6304724;22;46123;-78
2023/03/25 08:12:54;;;;;;;;;3.00;0.00;;;;;;;;6277322;22;45245;-79
2023/03/25 08:15:23;;;;;;;;;0.00;0.00;;;;;;;;6304334;22;45277;-79
2023/03/25 08:17:48;;;;;;;;;2.25;0.00;;;;;;;;6304638;22;45356;-78
2023/03/25 08:20:14;;;;;;;;;0.33;0.00;;;;;;;;6305210;22;45302;-78
2023/03/25 08:22:40;;;;;;;;;1.00;0.00;;;;;;;;6304656;22;45284;-79
2023/03/25 08:25:05;;;;;;;;;0.50;0.00;;;;;;;;6305320;22;45383;-79
2023/03/25 08:27:30;;;;;;;;;0.00;0.00;;;;;;;;6305210;22;45301;-79
2023/03/25 08:29:58;;;;;;;;;0.00;0.00;;;;;;;;6304831;22;46063;-78
2023/03/25 08:32:25;;;;;;;;;2.00;0.75;;;;;;;;6277287;22;45483;-78
2023/03/25 08:34:50;;;;;;;;;1.00;0.00;;;;;;;;6304972;22;45293;-78
2023/03/25 08:37:15;;;;;;;;;3.00;0.00;;;;;;;;6277082;22;45341;-78
2023/03/25 08:39:43;;;;;;;;;0.75;0.00;;;;;;;;6304410;22;45736;-79
2023/03/25 08:42:09;;;;;;;;;0.00;0.00;;;;;;;;6304912;22;45333;-78
2023/03/25 08:44:34;;;;;;;;;1.00;0.00;;;;;;;;6305051;22;45266;-79
2023/03/25 08:47:00;;;;;;;;;0.00;0.00;;;;;;;;6305013;22;45326;-79
2023/03/25 08:49:25;;;;;;;;;1.00;0.00;;;;;;;;6304940;22;45342;-78
2023/03/25 08:51:50;;;;;;;;;2.00;0.00;;;;;;;;6305345;22;45248;-79
2023/03/25 08:54:16;;;;;;;;;0.00;0.00;;;;;;;;6305097;22;45262;-79
2023/03/25 08:56:41;;;;;;;;;0.00;0.00;;;;;;;;6304842;22;45392;-79
2023/03/25 08:59:06;;;;;;;;;3.00;0.00;;;;;;;;6304251;22;46130;-78
2023/03/25 09:01:31;;;;;;;;;1.00;0.00;;;;;;;;6305138;22;45219;-79
2023/03/25 09:03:58;;;;;;;;;5.50;1.00;;;;;;;;6277337;22;45373;-79
2023/03/25 09:06:23;;;;;;;;;1.00;0.00;;;;;;;;6277066;22;45500;-79
2023/03/25 09:08:48;;;;;;;;;0.00;0.00;;;;;;;;6304446;22;46448;-78
2023/03/25 09:11:15;;;;;;;;;3.00;0.00;;;;;;;;6305089;22;45167;-79
2023/03/25 09:13:40;;;;;;;;;1.00;0.00;;;;;;;;6304386;22;45321;-79
2023/03/25 09:16:06;;;;;;;;;0.67;0.00;;;;;;;;6304910;22;45277;-79
2023/03/25 09:18:31;;;;;;;;;1.25;0.00;;;;;;;;6304963;22;46184;-79
2023/03/25 09:20:59;;;;;;;;;0.00;0.00;;;;;;;;6305092;22;45265;-79
2023/03/25 09:23:25;;;;;;;;;0.50;0.00;;;;;;;;6304693;22;45256;-78
2023/03/25 09:25:50;;;;;;;;;0.00;0.00;;;;;;;;6305025;22;45234;-79
2023/03/25 09:28:15;;;;;;;;;1.67;0.00;;;;;;;;6303806;22;47011;-79
2023/03/25 09:30:40;;;;;;;;;0.67;0.00;;;;;;;;6304703;22;45417;-79
2023/03/25 09:33:06;;;;;;;;;0.00;0.00;;;;;;;;6304778;22;45288;-79
2023/03/25 09:35:31;;;;;;;;;1.25;0.00;;;;;;;;6304228;22;45405;-79
2023/03/25 09:37:56;;;;;;;;;2.00;0.00;;;;;;;;6304938;22;45284;-79
2023/03/25 09:40:21;;;;;;;;;1.33;0.00;;;;;;;;6304041;22;45381;-79
2023/03/25 09:42:50;;;;;;;;;0.00;0.00;;;;;;;;6304583;22;45256;-77
2023/03/25 09:45:35;;;;;;;;;0.00;0.00;;;;;;;;6304563;22;45128;-79
2023/03/25 09:48:11;;;;;;;;;1.75;0.00;;;;;;;;6276835;22;47323;-79
2023/03/25 09:50:38;;;;;;;;;2.50;0.00;;;;;;;;6276839;22;45602;-79
2023/03/25 09:53:24;;;;;;;;;0.00;0.00;;;;;;;;6304459;22;45689;-79
2023/03/25 09:55:50;;;;;;;;;1.00;0.00;;;;;;;;6304058;22;45248;-79
2023/03/25 09:58:21;;;;;;;;;0.50;0.00;;;;;;;;6304253;22;46212;-77
2023/03/25 10:00:50;;;;;;;;;0.00;0.00;;;;;;;;6304111;22;45108;-77
2023/03/25 10:03:22;;;;;;;;;0.75;0.75;;;;;;;;6276924;22;45292;-78
2023/03/25 10:05:54;;;;;;;;;0.00;0.00;;;;;;;;6276670;22;45425;-78
2023/03/25 10:08:22;;;;;;;;;1.00;0.00;;;;;;;;6304203;22;45378;-78
2023/03/25 10:11:11;;;;;;;;;2.00;0.50;;;;;;;;6303646;22;45628;-78
2023/03/25 10:13:42;;;;;;;;;0.75;0.75;;;;;;;;6304495;22;45332;-78
2023/03/25 10:16:07;;;;;;;;;2.50;0.00;;;;;;;;6304493;22;45433;-77
2023/03/25 10:18:42;;;;;;;;;0.00;0.00;;;;;;;;6304441;22;45485;-78
2023/03/25 10:21:32;;;;;;;;;1.00;0.00;;;;;;;;6304587;22;45152;-78
2023/03/25 10:23:57;;;;;;;;;0.50;0.00;;;;;;;;6304239;22;45305;-78
2023/03/25 10:26:26;;;;;;;;;1.33;0.00;;;;;;;;6304061;22;45220;-78
2023/03/25 10:28:57;;;;;;;;;0.75;0.00;;;;;;;;6304530;22;45376;-78
2023/03/25 10:31:24;;;;;;;;;1.00;1.00;;;;;;;;6304315;22;45329;-78
2023/03/25 10:33:53;;;;;;;;;0.00;0.00;;;;;;;;6304187;22;45158;-78
2023/03/25 10:36:21;;;;;;;;;0.75;0.00;;;;;;;;6304144;22;45262;-78
2023/03/25 10:38:49;;;;;;;;;0.00;0.00;;;;;;;;6303580;22;46165;-79
2023/03/25 10:41:37;;;;;;;;;0.50;0.00;;;;;;;;6304941;22;45625;-78
2023/03/25 10:44:07;;;;;;;;;0.75;0.00;;;;;;;;6305380;22;45328;-78
2023/03/25 10:46:46;;;;;;;;;2.00;0.00;;;;;;;;6305596;22;45293;-78
2023/03/25 10:49:13;;;;;;;;;0.00;0.00;;;;;;;;6305809;22;46496;-78
2023/03/25 10:51:38;;;;;;;;;1.00;0.00;;;;;;;;6305308;22;45365;-79
2023/03/25 10:54:04;;;;;;;;;1.50;0.00;;;;;;;;6305436;22;45366;-78
2023/03/25 10:56:38;;;;;;;;;0.00;0.00;;;;;;;;6305071;22;45306;-78
2023/03/25 10:59:26;;;;;;;;;2.00;0.50;;;;;;;;6305606;22;46644;-78
2023/03/25 11:01:53;;;;;;;;;2.00;0.50;;;;;;;;6305610;22;45266;-77
2023/03/25 11:04:20;;;;;;;;;0.75;0.00;;;;;;;;6305892;22;45276;-78
2023/03/25 11:06:54;;;;;;;;;0.00;0.00;;;;;;;;6305698;22;45436;-78
2023/03/25 11:09:22;;;;;;;;;3.00;1.00;;;;;;;;6304994;22;46227;-78
2023/03/25 11:11:48;;;;;;;;;0.50;0.00;;;;;;;;6305656;22;45634;-78
2023/03/25 11:14:13;;;;;;;;;0.00;0.00;;;;;;;;6305755;22;45266;-78
2023/03/25 11:16:46;;;;;;;;;1.00;0.00;;;;;;;;6305470;22;45428;-78
2023/03/25 11:19:19;;;;;;;;;0.75;0.00;;;;;;;;6305194;22;45704;-79
2023/03/25 11:21:46;;;;;;;;;0.00;0.00;;;;;;;;6305322;22;45195;-78
2023/03/25 11:24:13;;;;;;;;;0.50;0.00;;;;;;;;6277224;22;45298;-78
2023/03/25 11:26:39;;;;;;;;;0.00;0.00;;;;;;;;6305413;22;45377;-78
2023/03/25 11:29:07;;;;;;;;;3.50;0.25;;;;;;;;6305115;22;45604;-78
2023/03/25 11:31:34;;;;;;;;;0.00;0.00;;;;;;;;6277549;22;46062;-78
2023/03/25 11:34:09;;;;;;;;;1.00;0.00;;;;;;;;6305256;22;45396;-78
2023/03/25 11:36:36;;;;;;;;;0.50;0.50;;;;;;;;6305138;22;45417;-78
2023/03/25 11:39:10;;;;;;;;;1.00;0.00;;;;;;;;6305104;22;46309;-79
2023/03/25 11:41:35;;;;;;;;;1.00;0.00;;;;;;;;6305620;22;45218;-78
2023/03/25 11:44:03;;;;;;;;;2.00;1.00;;;;;;;;6305026;22;45415;-79
2023/03/25 11:46:29;;;;;;;;;0.25;0.00;;;;;;;;6305466;22;45312;-78
2023/03/25 11:48:54;;;;;;;;;1.50;0.00;;;;;;;;6304845;22;46139;-78
2023/03/25 11:51:25;;;;;;;;;0.00;0.00;;;;;;;;6304384;22;45296;-79
2023/03/25 11:53:56;;;;;;;;;0.00;0.00;;;;;;;;6305200;22;45202;-78
2023/03/25 11:56:23;;;;;;;;;0.00;0.00;;;;;;;;6305533;22;45317;-79
2023/03/25 11:58:49;;;;;;;;;2.00;0.00;;;;;;;;6304982;22;46431;-79
2023/03/25 12:01:26;;;;;;;;;0.00;0.00;;;;;;;;6304734;22;45292;-79
2023/03/25 12:04:04;;;;;;;;;2.75;0.00;;;;;;;;6305064;22;45234;-79
2023/03/25 12:06:29;;;;;;;;;2.75;0.50;;;;;;;;6304460;22;45631;-79
2023/03/25 12:09:05;;;;;;;;;0.67;0.00;;;;;;;;6304950;22;45365;-79
2023/03/25 12:11:49;;;;;;;;;1.00;0.00;;;;;;;;6305158;22;45210;-79
2023/03/25 12:14:23;;;;;;;;;0.75;0.00;;;;;;;;6305661;22;45266;-78
2023/03/25 12:17:01;;;;;;;;;1.00;0.00;;;;;;;;6277207;22;45373;-78
2023/03/25 12:19:39;;;;;;;;;0.00;0.00;;;;;;;;6305101;22;45450;-78
2023/03/25 12:22:22;;;;;;;;;0.75;0.00;;;;;;;;6304496;22;45527;-78
2023/03/25 12:25:06;;;;;;;;;1.00;0.00;;;;;;;;6304875;22;45284;-79
2023/03/25 12:27:42;;;;;;;;;0.00;0.00;;;;;;;;6277440;22;45268;-78
2023/03/25 12:30:14;;;;;;;;;0.00;0.00;;;;;;;;6304787;22;45364;-78
2023/03/25 12:32:46;;;;;;;;;0.00;0.00;;;;;;;;6305296;22;45383;-77
2023/03/25 12:35:25;;;;;;;;;0.00;0.00;;;;;;;;6304387;22;45194;-78
2023/03/25 12:38:10;;;;;;;;;1.00;0.00;;;;;;;;6305190;22;45262;-78
2023/03/25 12:40:48;;;;;;;;;0.00;0.00;;;;;;;;6304607;22;46542;-78
2023/03/25 12:43:13;;;;;;;;;3.00;0.00;;;;;;;;6305060;22;45680;-78
2023/03/25 12:45:38;;;;;;;;;0.00;0.00;;;;;;;;6305594;22;45227;-78
2023/03/25 12:48:08;;;;;;;;;1.00;1.00;;;;;;;;6305675;22;45395;-78
2023/03/25 12:50:46;;;;;;;;;0.00;0.00;;;;;;;;6304843;22;45479;-78
2023/03/25 12:53:30;;;;;;;;;2.00;0.00;;;;;;;;6305344;22;45297;-78
2023/03/25 12:56:25;;;;;;;;;0.00;0.00;;;;;;;;6305038;22;45253;-78
2023/03/25 12:58:58;;;;;;;;;1.75;0.25;;;;;;;;6271197;22;45418;-78
2023/03/25 13:01:33;;;;;;;;;2.00;0.50;;;;;;;;6276522;22;48013;-78
2023/03/25 13:04:04;;;;;;;;;1.50;0.00;;;;;;;;6304222;22;45330;-79
2023/03/25 13:06:51;;;;;;;;;0.75;0.00;;;;;;;;6305171;22;45128;-78
2023/03/25 13:09:23;;;;;;;;;0.00;0.00;;;;;;;;6304886;22;45162;-77
2023/03/25 13:11:51;;;;;;;;;0.00;0.00;;;;;;;;6304956;22;45123;-79
2023/03/25 13:14:23;;;;;;;;;0.00;0.00;;;;;;;;6305177;22;45297;-79
2023/03/25 13:16:50;;;;;;;;;2.00;0.00;;;;;;;;6304586;22;45151;-78
2023/03/25 13:19:18;;;;;;;;;0.00;0.00;;;;;;;;6304421;22;45520;-79
2023/03/25 13:21:51;;;;;;;;;1.50;1.00;;;;;;;;6305016;22;45343;-78
2023/03/25 13:24:19;;;;;;;;;0.00;0.00;;;;;;;;6304986;22;45229;-78
2023/03/25 13:26:45;;;;;;;;;1.00;0.50;;;;;;;;6305344;22;45324;-78
2023/03/25 13:29:26;;;;;;;;;0.50;0.50;;;;;;;;6304818;22;45329;-78
2023/03/25 13:31:53;;;;;;;;;0.00;0.00;;;;;;;;6306500;22;45552;-80
2023/03/25 13:34:34;;;;;;;;;2.00;1.00;;;;;;;;6304901;22;45601;-78
2023/03/25 13:37:02;;;;;;;;;1.00;0.00;;;;;;;;6305553;22;45258;-77
2023/03/25 13:39:39;;;;;;;;;1.25;0.00;;;;;;;;6306822;22;45697;-78
2023/03/25 13:42:21;;;;;;;;;0.75;0.75;;;;;;;;6278516;22;48081;-78
2023/03/25 13:44:49;;;;;;;;;0.00;0.00;;;;;;;;6307117;22;45578;-78
2023/03/25 13:47:18;;;;;;;;;0.25;0.00;;;;;;;;6307369;22;45329;-78
2023/03/25 13:50:03;;;;;;;;;1.00;0.00;;;;;;;;6307343;22;45264;-80
2023/03/25 13:52:33;;;;;;;;;0.00;0.00;;;;;;;;6151651;23;45627;-78
2023/03/25 13:55:05;;;;;;;;;0.00;0.00;;;;;;;;6150653;23;45699;-79
2023/03/25 13:57:49;;;;;;;;;1.00;0.00;;;;;;;;6148875;23;45220;-78
2023/03/25 14:00:18;;;;;;;;;0.50;0.50;;;;;;;;6148732;23;45536;-78
2023/03/25 14:02:43;;;;;;;;;3.50;0.00;;;;;;;;6148372;23;46966;-78
2023/03/25 14:05:29;;;;;;;;;0.00;0.00;;;;;;;;6149188;23;45242;-78
2023/03/25 14:08:23;;;;;;;;;4.25;1.00;;;;;;;;6149604;23;45428;-79
2023/03/25 14:10:52;;;;;;;;;1.25;0.00;;;;;;;;6135739;23;45383;-79
2023/03/25 14:13:37;;;;;;;;;3.00;0.00;;;;;;;;6148759;23;45631;-79
2023/03/25 14:16:07;;;;;;;;;0.00;0.00;;;;;;;;6148814;23;45359;-79
2023/03/25 14:18:40;;;;;;;;;1.00;0.00;;;;;;;;6149471;23;45727;-78
2023/03/25 14:21:14;;;;;;;;;1.50;0.75;;;;;;;;6149354;23;45347;-79
2023/03/25 14:23:39;;;;;;;;;1.75;0.00;;;;;;;;6148582;23;46348;-78
2023/03/25 14:26:08;;;;;;;;;0.00;0.00;;;;;;;;6148358;23;45346;-78
2023/03/25 14:28:39;;;;;;;;;2.50;1.00;;;;;;;;6159326;22;45311;-79
2023/03/25 14:31:15;;;;;;;;;0.50;0.00;;;;;;;;6276069;22;45429;-79
2023/03/25 14:34:05;;;;;;;;;2.25;0.00;;;;;;;;6304564;22;45541;-78
2023/03/25 14:36:30;;;;;;;;;0.50;0.00;;;;;;;;6303767;22;45335;-78
2023/03/25 14:38:56;;;;;;;;;0.00;0.00;;;;;;;;6304715;22;45344;-79
2023/03/25 14:41:40;;;;;;;;;2.00;0.00;;;;;;;;6303910;22;45392;-78
2023/03/25 14:44:09;;;;;;;;;2.00;0.00;;;;;;;;6303926;22;46386;-78
2023/03/25 14:46:35;;;;;;;;;0.00;0.00;;;;;;;;6303816;22;45616;-78
2023/03/25 14:49:04;;;;;;;;;1.33;1.00;;;;;;;;6276636;22;45278;-77
2023/03/25 14:51:29;;;;;;;;;0.25;0.00;;;;;;;;6304038;22;45301;-77
2023/03/25 14:53:59;;;;;;;;;0.00;0.00;;;;;;;;6303812;22;46516;-79
2023/03/25 14:56:30;;;;;;;;;1.00;0.00;;;;;;;;6303779;22;45174;-79